createdAt,value
2018-11-29T00:00:23.197Z,-2.4
2018-11-29T00:03:53.497Z,-2.59
2018-11-29T00:07:23.557Z,-2.69
2018-11-29T00:10:53.939Z,-2.8
2018-11-29T00:14:24.057Z,-2.68
2018-11-29T00:17:54.117Z,-2.59
2018-11-29T00:21:24.195Z,-2.74
2018-11-29T00:24:54.346Z,-2.61
2018-11-29T00:28:24.396Z,-2.78
2018-11-29T00:31:54.535Z,-2.57
2018-11-29T00:35:24.625Z,-2.61
2018-11-29T00:38:54.685Z,-2.42
2018-11-29T00:42:24.715Z,-2.45
2018-11-29T00:45:54.911Z,-2.56
2018-11-29T00:49:24.878Z,-2.7
2018-11-29T00:52:54.918Z,-2.71
2018-11-29T00:56:24.880Z,-2.93
2018-11-29T00:59:55.093Z,-2.81
2018-11-29T01:03:25.133Z,-2.77
2018-11-29T01:06:55.497Z,-2.71
2018-11-29T01:10:25.613Z,-2.62
2018-11-29T01:13:55.792Z,-2.68
2018-11-29T01:17:25.842Z,-2.54
2018-11-29T01:20:55.934Z,-2.49
2018-11-29T01:24:26.012Z,-2.54
2018-11-29T01:27:56.121Z,-2.72
2018-11-29T01:31:26.221Z,-2.79
2018-11-29T01:34:56.371Z,-2.73
2018-11-29T01:38:26.376Z,-2.84
2018-11-29T01:41:56.531Z,-2.76
2018-11-29T01:45:26.650Z,-2.82
2018-11-29T01:48:56.690Z,-2.91
2018-11-29T01:52:26.710Z,-3.01
2018-11-29T01:55:56.770Z,-2.89
2018-11-29T01:59:26.779Z,-2.85
2018-11-29T02:00:17.463Z,-2.85
2018-11-29T02:03:47.527Z,-2.76
2018-11-29T02:07:17.549Z,-2.72
2018-11-29T02:10:51.889Z,-2.78
2018-11-29T02:14:21.928Z,-2.84
2018-11-29T02:17:52.168Z,-2.79
2018-11-29T02:21:22.798Z,-2.76
2018-11-29T02:24:52.988Z,-2.78
2018-11-29T02:28:22.940Z,-2.93
2018-11-29T02:31:52.999Z,-3.23
2018-11-29T02:35:23.079Z,-3.26
2018-11-29T02:38:53.098Z,-3.29
2018-11-29T02:42:23.176Z,-3.38
2018-11-29T02:45:53.265Z,-3.28
2018-11-29T02:49:23.276Z,-3.27
2018-11-29T02:52:53.421Z,-3.14
2018-11-29T02:56:23.507Z,-3.25
2018-11-29T02:59:53.544Z,-3.38
2018-11-29T03:03:23.717Z,-3.24
2018-11-29T03:06:53.736Z,-3.2
2018-11-29T03:10:43.334Z,-3.2
2018-11-29T03:17:11.343Z,-3.24
2018-11-29T16:42:24.338Z,-3.65
2018-11-29T18:55:25.024Z,-3.72
2018-11-29T18:58:55.134Z,-3.65
2018-11-29T19:02:25.304Z,-3.53
2018-11-29T19:05:55.343Z,-3.74
2018-11-29T19:09:25.523Z,-3.66
2018-11-29T19:12:57.863Z,-3.65
2018-11-29T19:16:27.992Z,-3.66
2018-11-29T19:19:58.101Z,-3.82
2018-11-29T19:23:28.422Z,-3.8
2018-11-29T19:26:58.511Z,-3.7
2018-11-29T19:30:29.461Z,-3.69
2018-11-29T19:34:01.542Z,-3.75
2018-11-29T19:37:32.221Z,-3.65
2018-11-29T19:41:02.287Z,-3.72
2018-11-29T19:44:32.589Z,-3.83
2018-11-29T19:48:03.189Z,-3.75
2018-11-29T19:51:33.347Z,-3.71
2018-11-29T19:55:03.768Z,-3.79
2018-11-29T19:58:34.208Z,-3.77
2018-11-29T20:00:16.488Z,-3.63
2018-11-29T20:03:46.778Z,-3.68
2018-11-29T20:07:16.827Z,-3.62
2018-11-29T20:10:46.986Z,-3.64
2018-11-29T20:14:17.117Z,-3.69
2018-11-29T20:17:47.316Z,-3.74
2018-11-29T20:21:17.435Z,-3.8
2018-11-29T20:24:47.605Z,-3.78
2018-11-29T20:28:17.705Z,-3.63
2018-11-29T20:31:48.056Z,-3.71
2018-11-29T20:35:18.274Z,-3.82
2018-11-29T20:38:48.514Z,-3.98
2018-11-29T20:42:18.603Z,-3.63
2018-11-29T20:45:51.373Z,-3.64
2018-11-29T20:49:21.444Z,-3.76
2018-11-29T20:52:52.752Z,-3.71
2018-11-29T20:56:22.962Z,-3.75
2018-11-29T20:59:53.381Z,-3.69
2018-11-29T21:03:23.557Z,-3.85
2018-11-29T21:06:53.797Z,-3.85
2018-11-29T21:10:24.480Z,-3.93
2018-11-29T21:13:54.970Z,-3.97
2018-11-29T21:17:25.069Z,-3.8
2018-11-29T21:20:55.299Z,-3.73
2018-11-29T21:24:25.461Z,-3.79
2018-11-29T21:27:55.628Z,-3.78
2018-11-29T21:31:25.718Z,-3.74
2018-11-29T21:34:55.847Z,-3.85
2018-11-29T21:38:26.008Z,-3.83
2018-11-29T21:41:56.218Z,-3.76
2018-11-29T21:45:26.397Z,-3.79
2018-11-29T21:48:56.576Z,-3.88
2018-11-29T21:52:26.775Z,-3.9
2018-11-29T21:55:56.928Z,-3.9
2018-11-29T21:59:27.025Z,-3.91
2018-11-29T22:00:18.294Z,-3.98
2018-11-29T22:03:48.843Z,-3.85
2018-11-29T22:07:57.607Z,-3.82
2018-11-29T22:11:27.653Z,-3.74
2018-11-29T22:14:57.113Z,-3.77
2018-11-29T22:19:31.672Z,-3.62
2018-11-29T22:23:01.210Z,-3.6
2018-11-29T22:26:31.361Z,-3.45
2018-11-29T22:30:01.523Z,-3.44
2018-11-29T22:33:31.740Z,-3.43
2018-11-29T22:37:02.037Z,-3.55
2018-11-29T22:40:32.291Z,-3.49
2018-11-29T22:44:02.529Z,-3.62
2018-11-29T22:47:32.999Z,-3.69
2018-11-29T22:51:02.550Z,-3.65
2018-11-29T22:54:32.848Z,-3.72
2018-11-29T22:58:03.049Z,-3.64
2018-11-29T23:01:33.388Z,-3.77
2018-11-29T23:05:04.067Z,-3.76
2018-11-29T23:08:58.877Z,-3.89
2018-11-29T23:12:28.367Z,-3.92
2018-11-29T23:15:58.566Z,-3.72
2018-11-29T23:19:28.739Z,-3.81
2018-11-29T23:22:58.895Z,-3.65
2018-11-29T23:26:28.936Z,-3.72
2018-11-29T23:29:59.074Z,-3.88
2018-11-29T23:33:29.315Z,-3.63
2018-11-29T23:36:59.580Z,-3.52
2018-11-29T23:40:29.784Z,-3.49
2018-11-29T23:44:00.066Z,-3.65
2018-11-29T23:47:30.253Z,-3.7
2018-11-29T23:51:00.373Z,-3.67
2018-11-29T23:54:30.583Z,-3.71
2018-11-29T23:58:00.752Z,-3.74
